createdAt,value
2022-09-15T00:01:51.547Z,13.10
2022-09-15T00:06:53.111Z,13.02
2022-09-15T00:11:54.565Z,13.07
2022-09-15T00:16:56.065Z,13.00
2022-09-15T00:21:57.709Z,12.85
2022-09-15T00:26:59.209Z,12.78
2022-09-15T00:32:00.711Z,12.68
2022-09-15T00:37:02.320Z,12.68
2022-09-15T00:42:04.135Z,12.70
2022-09-15T00:47:22.062Z,12.75
2022-09-15T00:52:47.939Z,12.73
2022-09-15T00:57:55.991Z,12.82
2022-09-15T01:02:57.601Z,12.88
2022-09-15T01:08:05.592Z,12.97
2022-09-15T01:13:12.597Z,12.75
2022-09-15T01:18:35.318Z,12.57
2022-09-15T01:24:01.550Z,12.50
2022-09-15T01:29:40.430Z,12.34
2022-09-15T01:34:50.565Z,12.32
2022-09-15T01:39:53.876Z,12.20
2022-09-15T01:45:03.823Z,12.23
2022-09-15T01:50:10.554Z,12.03
2022-09-15T01:55:17.909Z,11.90
2022-09-15T02:00:19.432Z,11.94
2022-09-15T02:05:42.287Z,11.95
2022-09-15T02:10:49.032Z,11.97
2022-09-15T02:15:55.537Z,11.85
2022-09-15T02:21:31.577Z,11.85
2022-09-15T02:26:35.714Z,11.86
2022-09-15T02:31:39.851Z,11.97
2022-09-15T02:36:42.624Z,11.89
2022-09-15T02:41:44.243Z,11.91
2022-09-15T02:46:45.835Z,11.87
2022-09-15T02:51:47.368Z,11.80
2022-09-15T02:56:48.808Z,11.81
2022-09-15T03:01:51.846Z,11.62
2022-09-15T03:06:53.447Z,11.56
2022-09-15T03:11:54.869Z,11.43
2022-09-15T03:16:58.208Z,11.38
2022-09-15T03:21:59.774Z,11.32
2022-09-15T03:27:01.206Z,11.47
2022-09-15T03:32:03.027Z,11.60
2022-09-15T03:37:04.445Z,11.68
2022-09-15T03:42:06.036Z,11.79
2022-09-15T03:47:07.664Z,11.84
2022-09-15T03:52:09.179Z,11.95
2022-09-15T03:57:11.261Z,11.98
2022-09-15T04:02:12.812Z,12.03
2022-09-15T04:07:14.289Z,11.96
2022-09-15T04:12:15.677Z,11.78
2022-09-15T04:17:17.138Z,11.62
2022-09-15T04:22:18.780Z,11.47
2022-09-15T04:27:20.239Z,11.44
2022-09-15T04:32:21.923Z,11.56
2022-09-15T04:37:23.369Z,11.90
2022-09-15T04:42:25.005Z,11.96
2022-09-15T04:47:26.407Z,11.89
2022-09-15T04:52:27.825Z,11.88
2022-09-15T04:57:29.256Z,11.91
2022-09-15T05:02:30.824Z,11.77
2022-09-15T05:07:32.340Z,11.73
2022-09-15T05:12:33.770Z,11.71
2022-09-15T05:17:35.243Z,11.60
2022-09-15T05:22:41.489Z,11.60
2022-09-15T05:27:43.502Z,11.71
2022-09-15T05:32:45.073Z,11.92
2022-09-15T05:37:46.582Z,12.04
2022-09-15T05:42:47.985Z,12.26
2022-09-15T05:47:49.535Z,12.28
2022-09-15T05:52:52.816Z,12.22
2022-09-15T05:57:54.456Z,12.13
2022-09-15T06:02:55.987Z,11.99
2022-09-15T06:07:57.525Z,11.98
2022-09-15T06:12:58.979Z,12.07
2022-09-15T06:18:00.439Z,12.22
2022-09-15T06:23:01.950Z,12.50
2022-09-15T06:28:03.415Z,12.75
2022-09-15T06:33:04.952Z,12.92
2022-09-15T06:38:06.440Z,12.72
2022-09-15T06:43:07.873Z,12.63
2022-09-15T06:48:23.906Z,12.65
2022-09-15T06:53:29.116Z,12.64
2022-09-15T06:58:31.144Z,12.70
2022-09-15T07:03:32.801Z,12.74
2022-09-15T07:08:34.716Z,12.86
2022-09-15T07:13:36.701Z,13.09
2022-09-15T07:18:42.853Z,13.20
2022-09-15T07:23:45.496Z,13.36
2022-09-15T07:29:01.324Z,13.48
2022-09-15T07:34:03.889Z,13.66
2022-09-15T07:39:05.649Z,13.88
2022-09-15T07:44:08.276Z,14.09
2022-09-15T07:49:10.113Z,14.28
2022-09-15T07:54:11.782Z,14.59
2022-09-15T07:59:13.329Z,14.96
2022-09-15T08:04:15.163Z,15.12
2022-09-15T08:09:17.674Z,15.17
2022-09-15T08:14:19.200Z,15.17
2022-09-15T08:19:20.851Z,15.36
2022-09-15T08:24:22.647Z,15.19
2022-09-15T08:29:24.098Z,15.82
2022-09-15T08:34:26.509Z,16.57
2022-09-15T08:39:27.937Z,16.87
2022-09-15T08:44:38.412Z,16.87
2022-09-15T08:50:03.480Z,16.50
2022-09-15T08:55:12.982Z,16.17
2022-09-15T09:00:16.530Z,15.80
2022-09-15T09:05:32.434Z,15.87
2022-09-15T09:10:43.064Z,16.52
2022-09-15T09:16:15.110Z,16.34
2022-09-15T09:21:39.192Z,16.65
2022-09-15T09:26:40.617Z,16.71
2022-09-15T09:31:43.165Z,16.66
2022-09-15T09:36:44.807Z,16.91
2022-09-15T09:41:47.008Z,17.11
2022-09-15T09:46:49.198Z,18.24
2022-09-15T09:51:55.096Z,17.67
2022-09-15T09:57:16.773Z,18.32
2022-09-15T10:02:28.683Z,19.15
2022-09-15T10:07:33.302Z,22.98
2022-09-15T10:12:40.734Z,23.22
2022-09-15T10:17:46.055Z,24.91
2022-09-15T10:22:47.764Z,26.64
2022-09-15T10:28:02.449Z,27.70
2022-09-15T10:33:24.607Z,27.04
2022-09-15T10:38:45.362Z,27.56
2022-09-15T10:43:54.467Z,23.18
2022-09-15T10:49:19.072Z,19.10
2022-09-15T10:54:41.758Z,17.34
2022-09-15T10:59:51.362Z,16.85
2022-09-15T11:05:05.528Z,18.55
2022-09-15T11:10:20.297Z,23.92
2022-09-15T11:15:33.480Z,25.49
2022-09-15T11:20:35.027Z,22.76
2022-09-15T11:25:43.437Z,19.95
2022-09-15T11:30:55.895Z,18.38
2022-09-15T11:36:11.218Z,17.19
2022-09-15T11:41:21.040Z,22.39
2022-09-15T11:46:44.013Z,22.77
2022-09-15T11:51:53.895Z,21.02
2022-09-15T11:56:56.409Z,19.80
2022-09-15T12:02:00.730Z,18.24
2022-09-15T12:07:16.193Z,21.85
2022-09-15T12:12:21.582Z,22.08
2022-09-15T12:17:31.872Z,23.02
2022-09-15T12:22:57.529Z,23.46
2022-09-15T12:28:24.086Z,23.47
2022-09-15T12:33:44.892Z,22.76
2022-09-15T12:38:49.440Z,20.62
2022-09-15T12:43:58.233Z,20.06
2022-09-15T12:49:03.143Z,19.14
2022-09-15T12:54:07.411Z,20.26
2022-09-15T12:59:14.066Z,21.11
2022-09-15T13:04:43.693Z,21.02
2022-09-15T13:09:57.614Z,20.16
2022-09-15T13:15:03.908Z,20.40
2022-09-15T13:20:15.194Z,19.47
2022-09-15T13:25:23.251Z,18.45
2022-09-15T13:30:49.366Z,17.86
2022-09-15T13:36:02.654Z,17.16
2022-09-15T13:41:23.307Z,18.14
2022-09-15T13:46:36.763Z,18.86
2022-09-15T13:51:43.073Z,19.40
2022-09-15T13:56:47.256Z,19.57
2022-09-15T14:01:48.858Z,19.87
2022-09-15T14:06:55.991Z,19.75
2022-09-15T14:12:04.952Z,19.37
2022-09-15T14:17:19.223Z,19.78
2022-09-15T14:22:27.294Z,19.26
2022-09-15T14:27:32.545Z,19.72
2022-09-15T14:32:39.908Z,19.62
2022-09-15T14:37:41.393Z,18.62
2022-09-15T14:42:43.257Z,18.10
2022-09-15T14:47:45.295Z,18.42
2022-09-15T14:52:48.745Z,18.69
2022-09-15T14:58:04.109Z,18.60
2022-09-15T15:03:33.067Z,18.56
2022-09-15T15:08:41.617Z,18.76
2022-09-15T15:13:45.712Z,18.63
2022-09-15T15:18:47.282Z,18.55
2022-09-15T15:23:50.041Z,17.98
2022-09-15T15:28:51.800Z,17.48
2022-09-15T15:33:59.259Z,17.14
2022-09-15T15:39:04.733Z,17.37
2022-09-15T15:44:13.708Z,17.03
2022-09-15T15:49:15.845Z,16.89
2022-09-15T15:54:17.446Z,16.51
2022-09-15T15:59:19.840Z,16.37
2022-09-15T16:04:21.327Z,16.45
2022-09-15T16:09:22.733Z,16.46
2022-09-15T16:14:24.205Z,16.40
2022-09-15T16:19:25.718Z,16.14
2022-09-15T16:24:28.412Z,15.87
2022-09-15T16:29:36.098Z,15.86
2022-09-15T16:34:37.828Z,15.75
2022-09-15T16:39:39.286Z,15.46
2022-09-15T16:44:40.680Z,15.18
2022-09-15T16:49:42.601Z,15.08
2022-09-15T16:54:44.636Z,14.88
2022-09-15T16:59:46.096Z,14.85
2022-09-15T17:04:47.516Z,14.84
2022-09-15T17:09:49.797Z,14.71
2022-09-15T17:14:51.419Z,14.65
2022-09-15T17:19:52.848Z,14.50
2022-09-15T17:24:54.317Z,14.41
2022-09-15T17:29:56.253Z,14.23
2022-09-15T17:34:57.801Z,13.99
2022-09-15T17:39:59.340Z,13.80
2022-09-15T17:45:01.035Z,13.62
2022-09-15T17:50:02.595Z,13.31
2022-09-15T17:55:12.254Z,13.09
2022-09-15T18:00:15.105Z,12.91
2022-09-15T18:05:26.928Z,12.77
2022-09-15T18:10:30.080Z,12.57
2022-09-15T18:15:33.979Z,12.47
2022-09-15T18:20:36.738Z,12.41
2022-09-15T18:25:38.252Z,12.24
2022-09-15T18:30:42.081Z,12.23
2022-09-15T18:35:44.219Z,12.01
2022-09-15T18:40:53.164Z,11.80
2022-09-15T18:46:00.491Z,11.81
2022-09-15T18:51:02.144Z,11.66
2022-09-15T18:56:11.737Z,11.62
2022-09-15T19:01:13.297Z,11.48
2022-09-15T19:06:14.803Z,11.36
2022-09-15T19:11:17.220Z,11.19
2022-09-15T19:16:22.756Z,11.11
2022-09-15T19:21:27.379Z,11.17
2022-09-15T19:26:29.583Z,11.20
2022-09-15T19:31:31.064Z,11.23
2022-09-15T19:36:32.636Z,11.16
2022-09-15T19:41:34.217Z,10.96
2022-09-15T19:46:35.667Z,10.99
2022-09-15T19:51:37.219Z,10.88
2022-09-15T19:56:38.725Z,10.85
2022-09-15T20:01:40.330Z,10.79
2022-09-15T20:06:42.196Z,10.75
2022-09-15T20:11:43.629Z,10.58
2022-09-15T20:16:45.158Z,10.49
2022-09-15T20:21:51.226Z,10.51
2022-09-15T20:26:53.181Z,10.62
2022-09-15T20:31:54.674Z,10.76
2022-09-15T20:36:56.166Z,10.66
2022-09-15T20:41:58.013Z,10.75
2022-09-15T20:46:59.536Z,10.55
2022-09-15T20:52:01.093Z,10.51
2022-09-15T20:57:02.608Z,10.56
2022-09-15T21:02:05.979Z,10.66
2022-09-15T21:07:07.510Z,10.65
2022-09-15T21:12:09.654Z,10.70
2022-09-15T21:17:11.100Z,10.67
2022-09-15T21:22:12.488Z,10.53
2022-09-15T21:27:29.935Z,10.48
2022-09-15T21:32:32.651Z,10.50
2022-09-15T21:37:34.382Z,10.59
2022-09-15T21:42:35.903Z,10.72
2022-09-15T21:47:37.527Z,10.70
2022-09-15T21:52:39.132Z,10.69
2022-09-15T21:57:40.558Z,10.64
2022-09-15T22:02:42.060Z,10.69
2022-09-15T22:07:43.924Z,10.65
2022-09-15T22:12:45.482Z,10.64
2022-09-15T22:17:46.952Z,10.75
2022-09-15T22:22:48.601Z,10.70
2022-09-15T22:27:50.101Z,10.68
2022-09-15T22:32:53.153Z,10.61
2022-09-15T22:37:54.596Z,10.67
2022-09-15T22:42:56.030Z,10.82
2022-09-15T22:47:57.429Z,10.77
2022-09-15T22:52:58.847Z,10.53
2022-09-15T22:58:00.305Z,10.38
2022-09-15T23:03:01.775Z,10.32
2022-09-15T23:08:03.743Z,10.10
2022-09-15T23:13:05.433Z,10.02
2022-09-15T23:18:06.940Z,9.96
2022-09-15T23:23:08.391Z,10.23
2022-09-15T23:28:09.794Z,10.33
2022-09-15T23:33:11.208Z,10.43
2022-09-15T23:38:13.011Z,10.13
2022-09-15T23:43:15.049Z,10.04
2022-09-15T23:48:16.815Z,9.82
2022-09-15T23:53:19.094Z,9.80
2022-09-15T23:58:20.515Z,9.65
